Time;durP1;ratioP1;P1;durP2;ratioP2;P2;SDS_P1;SDS_P2;PMS_P1;PMS_P2;Temp;Humidity;BMP_temperature;BMP_pressure;BME280_temperature;BME280_humidity;BME280_pressure;Samples;Min_cycle;Max_cycle;Signal;HPM_P1;HPM_P2
2021/10/16 00:01:58;;;;;;;9.98;4.32;;;;;;;7.00;100.00;94546.22;5108308;28;20755;-65
2021/10/16 00:04:25;;;;;;;15.52;7.13;;;;;;;6.97;100.00;94541.50;5108374;28;20048;-64
2021/10/16 00:06:52;;;;;;;11.65;4.32;;;;;;;6.99;100.00;94549.84;5086667;28;20055;-65
2021/10/16 00:09:19;;;;;;;14.38;5.40;;;;;;;7.04;100.00;94542.22;5088200;28;20410;-64
2021/10/16 00:11:46;;;;;;;16.58;6.90;;;;;;;7.04;100.00;94542.22;5107551;28;20070;-65
2021/10/16 00:14:13;;;;;;;10.07;4.95;;;;;;;7.04;100.00;94542.22;5107813;28;20035;-65
2021/10/16 00:16:40;;;;;;;17.13;6.70;;;;;;;7.08;100.00;94548.53;5098787;28;20056;-65
2021/10/16 00:19:07;;;;;;;17.42;8.23;;;;;;;7.08;100.00;94543.34;5087686;28;20497;-65
2021/10/16 00:21:35;;;;;;;16.58;7.68;;;;;;;7.13;100.00;94544.50;5097965;28;20051;-65
2021/10/16 00:24:02;;;;;;;16.58;6.72;;;;;;;7.19;100.00;94538.47;5107949;28;20043;-65
2021/10/16 00:26:29;;;;;;;26.45;9.20;;;;;;;7.20;100.00;94542.63;5097412;28;20043;-66
2021/10/16 00:28:56;;;;;;;8.77;4.90;;;;;;;7.21;100.00;94536.44;5107477;28;20047;-65
2021/10/16 00:31:23;;;;;;;7.47;4.65;;;;;;;7.25;100.00;94533.19;5060107;28;20050;-65
2021/10/16 00:33:49;;;;;;;31.23;9.07;;;;;;;7.28;100.00;94532.00;5094436;28;20089;-65
2021/10/16 00:36:16;;;;;;;46.50;12.10;;;;;;;7.23;100.00;94524.06;5084184;28;20047;-65
2021/10/16 00:38:43;;;;;;;16.60;7.32;;;;;;;7.23;100.00;94524.84;5097751;28;20044;-65
2021/10/16 00:41:12;;;;;;;15.40;6.40;;;;;;;7.26;100.00;94534.00;5087133;28;20044;-65
2021/10/16 00:43:39;;;;;;;16.83;7.30;;;;;;;7.22;100.00;94535.44;5088795;28;20461;-65
2021/10/16 00:46:06;;;;;;;12.82;6.20;;;;;;;7.26;100.00;94534.00;5107388;28;20489;-65
2021/10/16 00:48:33;;;;;;;13.70;5.93;;;;;;;7.16;100.00;94528.53;5088740;28;20043;-65
2021/10/16 00:51:00;;;;;;;25.92;9.82;;;;;;;7.13;100.00;94528.97;5088786;28;20035;-65
2021/10/16 00:53:27;;;;;;;9.98;5.03;;;;;;;7.15;100.00;94519.16;5092144;28;20769;-65
2021/10/16 00:55:54;;;;;;;30.63;9.10;;;;;;;7.02;100.00;94497.63;5086932;28;20051;-65
2021/10/16 00:58:23;;;;;;;19.80;8.18;;;;;;;7.05;100.00;94517.88;5099192;28;20063;-65
2021/10/16 01:00:49;;;;;;;15.75;6.57;;;;;;;7.09;100.00;94518.25;5088317;28;20051;-65
2021/10/16 01:03:20;;;;;;;17.35;5.88;;;;;;;7.04;100.00;94516.31;5096903;28;20043;-65
2021/10/16 01:05:48;;;;;;;10.20;3.85;;;;;;;6.95;100.00;94521.97;5077437;28;20132;-65
2021/10/16 01:08:15;;;;;;;5.82;4.20;;;;;;;7.05;100.00;94523.06;5088218;28;20122;-65
2021/10/16 01:10:42;;;;;;;4.57;2.65;;;;;;;7.04;100.00;94516.31;5104907;28;20047;-65
2021/10/16 01:13:09;;;;;;;13.85;4.15;;;;;;;7.07;100.00;94510.69;5106240;28;20109;-65
2021/10/16 01:15:37;;;;;;;7.75;3.03;;;;;;;7.12;100.00;94506.69;5106537;28;20044;-66
2021/10/16 01:18:05;;;;;;;12.10;3.60;;;;;;;7.12;100.00;94506.69;5106271;28;20416;-64
2021/10/16 01:20:33;;;;;;;10.00;3.08;;;;;;;7.06;100.00;94503.94;5106896;28;20050;-64
2021/10/16 01:23:00;;;;;;;6.05;2.65;;;;;;;7.07;100.00;94518.47;5087752;28;20105;-64
2021/10/16 01:25:27;;;;;;;2.95;1.83;;;;;;;7.02;100.00;94518.34;5085557;28;20052;-65
2021/10/16 01:27:55;;;;;;;2.85;1.67;;;;;;;7.12;100.00;94517.03;5088698;28;20512;-64
2021/10/16 01:30:24;;;;;;;3.40;1.90;;;;;;;7.16;100.00;94518.19;5086287;28;20055;-64
2021/10/16 01:32:51;;;;;;;3.03;1.75;;;;;;;7.08;100.00;94517.47;5069427;28;20086;-65
2021/10/16 01:35:19;;;;;;;4.97;2.42;;;;;;;7.10;100.00;94511.28;5101459;28;20427;-65
2021/10/16 01:37:48;;;;;;;23.65;6.05;;;;;;;7.17;100.00;94509.41;5095196;28;20060;-65
2021/10/16 01:40:19;;;;;;;11.52;4.57;;;;;;;7.27;100.00;94514.84;5071531;28;20040;-65
2021/10/16 01:42:48;;;;;;;6.47;3.17;;;;;;;7.29;100.00;94507.66;5086143;28;20028;-65
2021/10/16 01:45:19;;;;;;;4.43;2.60;;;;;;;7.30;100.00;94514.44;5055503;28;20055;-65
2021/10/16 01:47:50;;;;;;;10.70;3.40;;;;;;;7.04;100.00;94515.50;5091130;28;20036;-65
2021/10/16 01:50:22;;;;;;;;;;;;;;;7.05;100.00;94517.88;5088309;28;20047;-64
2021/10/16 01:52:50;;;;;;;3.85;2.03;;;;;;;7.13;100.00;94513.44;5086671;28;19950;-64
2021/10/16 01:55:18;;;;;;;2.78;1.50;;;;;;;7.23;100.00;94503.34;5087414;28;20453;-65
2021/10/16 01:57:51;;;;;;;2.88;1.67;;;;;;;7.31;100.00;94503.06;5077393;28;20040;-64
2021/10/16 02:00:18;;;;;;;8.98;3.85;;;;;;;7.22;100.00;94507.75;5087909;28;20166;-64
2021/10/16 02:02:50;;;;;;;2.63;1.90;;;;;;;7.11;100.00;94510.25;5082973;28;20070;-65
2021/10/16 02:05:31;;;;;;;3.72;2.28;;;;;;;7.16;100.00;94508.59;5087750;28;20500;-65
2021/10/16 02:08:24;;;;;;;4.53;2.15;;;;;;;7.22;100.00;94502.56;5067240;28;20056;-65
2021/10/16 02:10:51;;;;;;;4.93;2.67;;;;;;;7.25;100.00;94501.34;5085578;28;20581;-66
2021/10/16 02:13:18;;;;;;;5.05;2.97;;;;;;;7.30;100.00;94514.44;5077524;28;20505;-65
2021/10/16 02:16:06;;;;;;;11.35;4.43;;;;;;;7.33;100.00;94508.81;5084382;28;20532;-65
2021/10/16 02:19:11;;;;;;;4.10;1.70;;;;;;;7.32;100.00;94512.41;5065532;28;20048;-66
2021/10/16 02:21:38;;;;;;;7.30;2.70;;;;;;;7.24;100.00;94492.00;5083443;28;20144;-66
2021/10/16 02:24:06;;;;;;;5.13;2.38;;;;;;;7.43;100.00;94518.66;5081669;28;20042;-65
2021/10/16 02:26:41;;;;;;;2.92;1.52;;;;;;;7.36;100.00;94518.72;5067409;28;20051;-66
2021/10/16 02:29:17;;;;;;;7.63;2.25;;;;;;;7.38;100.00;94521.91;5083882;28;20048;-66
2021/10/16 02:31:49;;;;;;;3.00;2.08;;;;;;;7.44;100.00;94518.44;5063624;28;20498;-67
2021/10/16 02:34:16;;;;;;;2.90;2.20;;;;;;;7.44;100.00;94531.41;5081886;28;20040;-66
2021/10/16 02:36:56;;;;;;;2.50;1.80;;;;;;;7.32;100.00;94533.13;5079141;28;20518;-66
2021/10/16 02:39:24;;;;;;;4.57;1.60;;;;;;;7.28;100.00;94532.78;5065176;28;20126;-66
2021/10/16 02:41:52;;;;;;;5.32;1.55;;;;;;;7.13;100.00;94523.78;5074153;28;20425;-66
2021/10/16 02:44:19;;;;;;;2.10;1.35;;;;;;;7.24;100.00;94530.84;5084676;28;20052;-66
2021/10/16 02:46:48;;;;;;;10.00;3.45;;;;;;;7.25;100.00;94537.59;5083342;28;20071;-66
2021/10/16 02:49:15;;;;;;;9.50;4.15;;;;;;;7.36;100.00;94529.09;5055679;28;20040;-66
2021/10/16 02:51:42;;;;;;;7.75;3.92;;;;;;;7.35;100.00;94519.75;5063588;28;20521;-66
2021/10/16 02:54:08;;;;;;;8.05;2.97;;;;;;;7.36;100.00;94518.72;5062368;28;20678;-66
2021/10/16 02:56:36;;;;;;;16.27;4.70;;;;;;;7.30;100.00;94517.00;5063741;28;20122;-66
2021/10/16 02:59:11;;;;;;;7.10;2.17;;;;;;;7.29;100.00;94515.41;5064669;28;20039;-66
2021/10/16 03:02:07;;;;;;;8.07;2.20;;;;;;;7.27;100.00;94514.84;5057940;28;20040;-66
2021/10/16 03:04:34;;;;;;;4.10;2.17;;;;;;;7.16;100.00;94503.41;5067080;28;20044;-66
2021/10/16 03:07:00;;;;;;;4.60;2.58;;;;;;;7.25;100.00;94522.84;5083096;28;20036;-66
2021/10/16 03:09:35;;;;;;;9.88;3.40;;;;;;;7.21;100.00;94521.69;5082939;28;20117;-65
2021/10/16 03:12:04;;;;;;;5.30;2.03;;;;;;;7.13;100.00;94521.19;5085784;28;20042;-65
2021/10/16 03:14:37;;;;;;;6.40;1.70;;;;;;;7.01;100.00;94521.91;5084332;28;20049;-66
2021/10/16 03:17:04;;;;;;;5.07;2.70;;;;;;;7.12;100.00;94517.03;5066411;28;20044;-66
2021/10/16 03:19:32;;;;;;;5.93;2.10;;;;;;;7.10;100.00;94519.06;5084869;28;20119;-66
2021/10/16 03:22:05;;;;;;;3.45;2.30;;;;;;;7.03;100.00;94516.53;5072185;28;20082;-65
2021/10/16 03:24:36;;;;;;;6.32;2.38;;;;;;;7.00;100.00;94515.16;5086275;28;20048;-65
2021/10/16 03:27:03;;;;;;;8.27;1.70;;;;;;;6.87;100.00;94520.47;5075149;28;20040;-66
2021/10/16 03:29:31;;;;;;;6.50;1.70;;;;;;;6.90;100.00;94520.06;5075159;28;20432;-65
2021/10/16 03:31:59;;;;;;;7.55;3.42;;;;;;;6.92;100.00;94517.25;5066186;28;20416;-66
2021/10/16 03:34:27;;;;;;;8.30;3.03;;;;;;;6.97;100.00;94515.59;5094144;28;20054;-65
2021/10/16 03:36:55;;;;;;;3.15;1.75;;;;;;;6.91;100.00;94511.25;5069925;28;20131;-65
2021/10/16 03:39:22;;;;;;;4.18;1.67;;;;;;;6.96;100.00;94524.38;5068644;28;20425;-65
2021/10/16 03:41:49;;;;;;;3.75;1.83;;;;;;;6.93;100.00;94527.38;5071431;28;20040;-66
2021/10/16 03:44:16;;;;;;;10.10;3.55;;;;;;;6.90;100.00;94520.06;5088283;28;20044;-66
2021/10/16 03:46:43;;;;;;;5.15;1.90;;;;;;;6.87;100.00;94520.47;5086830;28;20135;-67
2021/10/16 03:49:10;;;;;;;5.78;2.63;;;;;;;6.92;100.00;94512.06;5098890;28;20134;-66
2021/10/16 03:51:37;;;;;;;5.35;2.50;;;;;;;6.91;100.00;94503.50;5069476;28;20417;-66
2021/10/16 03:54:04;;;;;;;2.53;1.63;;;;;;;6.94;100.00;94505.66;5069802;28;20064;-66
2021/10/16 03:56:31;;;;;;;6.13;2.15;;;;;;;6.91;100.00;94511.25;5088241;28;20040;-67
2021/10/16 03:59:01;;;;;;;4.55;1.90;;;;;;;6.88;100.00;94506.53;5088593;28;20040;-66
2021/10/16 04:01:28;;;;;;;5.10;2.00;;;;;;;6.88;100.00;94512.50;5089713;28;20044;-66
2021/10/16 04:03:57;;;;;;;2.35;1.38;;;;;;;6.76;100.00;94497.91;5076657;28;20510;-66
2021/10/16 04:06:24;;;;;;;5.03;3.28;;;;;;;6.86;100.00;94511.13;5087960;28;20406;-65
2021/10/16 04:08:52;;;;;;;4.25;2.65;;;;;;;6.81;100.00;94511.00;5069380;28;20071;-66
2021/10/16 04:11:21;;;;;;;1.42;1.20;;;;;;;6.82;100.00;94507.38;5072328;28;20090;-66
2021/10/16 04:13:49;;;;;;;2.35;1.75;;;;;;;6.81;100.00;94508.41;5074844;28;20078;-67
2021/10/16 04:16:16;;;;;;;2.15;1.52;;;;;;;6.83;100.00;94508.97;5080479;28;20083;-66
2021/10/16 04:18:43;;;;;;;5.00;2.55;;;;;;;6.83;100.00;94519.34;5074214;28;20100;-66
2021/10/16 04:21:10;;;;;;;3.05;1.92;;;;;;;6.77;100.00;94517.59;5089285;28;20049;-66
2021/10/16 04:23:37;;;;;;;1.90;1.42;;;;;;;6.76;100.00;94528.97;5078738;28;20046;-66
2021/10/16 04:26:05;;;;;;;2.80;1.45;;;;;;;6.83;100.00;94524.50;5089119;28;20040;-65
2021/10/16 04:28:32;;;;;;;9.52;2.55;;;;;;;6.80;100.00;94524.94;5085969;28;20044;-66
2021/10/16 04:31:18;;;;;;;11.75;3.78;;;;;;;6.84;100.00;94526.88;5077805;28;20039;-66
2021/10/16 04:33:45;;;;;;;7.53;2.80;;;;;;;6.83;100.00;94533.06;5083043;28;20042;-65
2021/10/16 04:36:11;;;;;;;12.27;3.90;;;;;;;6.85;100.00;94530.25;5088250;28;20436;-66
2021/10/16 04:38:44;;;;;;;9.45;3.28;;;;;;;6.93;100.00;94535.13;5070140;28;20455;-65
2021/10/16 04:41:11;;;;;;;9.45;2.53;;;;;;;6.92;100.00;94541.34;5086725;28;20055;-66
2021/10/16 04:43:41;;;;;;;2.97;1.38;;;;;;;6.96;100.00;94541.69;5084960;28;20044;-66
2021/10/16 04:46:09;;;;;;;1.80;1.10;;;;;;;6.96;100.00;94549.47;5090642;28;20115;-66
2021/10/16 04:48:45;;;;;;;4.18;1.83;;;;;;;6.85;100.00;94523.28;5068778;28;20131;-66
2021/10/16 04:51:13;;;;;;;5.35;2.80;;;;;;;6.97;100.00;94541.50;5068534;28;20254;-66
2021/10/16 04:53:42;;;;;;;4.60;1.65;;;;;;;6.97;100.00;94545.84;5083226;28;20158;-66
2021/10/16 04:56:09;;;;;;;5.53;2.40;;;;;;;6.95;100.00;94553.88;5067271;28;20531;-65
2021/10/16 04:58:35;;;;;;;21.70;8.23;;;;;;;7.03;100.00;94556.16;5087449;28;20039;-66
2021/10/16 05:01:02;;;;;;;13.93;7.50;;;;;;;6.93;100.00;94561.03;5101333;28;20432;-66
2021/10/16 05:03:29;;;;;;;22.50;9.38;;;;;;;6.96;100.00;94568.38;5088408;28;20508;-66
2021/10/16 05:05:57;;;;;;;6.30;3.35;;;;;;;7.02;100.00;94570.13;5088396;28;20065;-66
2021/10/16 05:08:27;;;;;;;14.13;6.60;;;;;;;6.98;100.00;94568.94;5088037;28;20047;-66
2021/10/16 05:10:55;;;;;;;7.15;3.75;;;;;;;7.01;100.00;94565.94;5085700;28;20071;-66
2021/10/16 05:13:22;;;;;;;7.15;3.33;;;;;;;6.94;100.00;94562.63;5088134;28;20056;-66
2021/10/16 05:15:49;;;;;;;4.75;2.75;;;;;;;7.03;100.00;94574.28;5088470;28;20067;-66
2021/10/16 05:18:16;;;;;;;8.63;4.55;;;;;;;6.99;100.00;94575.72;5069977;28;20505;-66
2021/10/16 05:20:53;;;;;;;30.77;14.00;;;;;;;6.96;100.00;94570.97;5069454;28;20048;-66
2021/10/16 05:23:23;;;;;;;4.90;3.58;;;;;;;6.96;100.00;94576.16;5067625;28;20048;-65
2021/10/16 05:25:51;;;;;;;6.55;3.97;;;;;;;7.00;100.00;94582.47;5067714;28;20036;-66
2021/10/16 05:28:20;;;;;;;4.30;2.88;;;;;;;6.87;100.00;94580.03;5069989;28;20040;-65
2021/10/16 05:30:50;;;;;;;2.53;1.52;;;;;;;6.89;100.00;94593.53;5067971;28;20059;-65
2021/10/16 05:33:16;;;;;;;4.32;2.55;;;;;;;6.92;100.00;94600.09;5079331;28;20062;-65
2021/10/16 05:35:45;;;;;;;7.18;4.00;;;;;;;6.81;100.00;94580.88;5088091;28;20531;-65
2021/10/16 05:38:18;;;;;;;7.93;3.97;;;;;;;6.91;100.00;94586.34;5081779;28;20047;-66
2021/10/16 05:40:45;;;;;;;4.72;3.00;;;;;;;6.98;100.00;94592.25;5070787;28;20047;-65
2021/10/16 05:43:12;;;;;;;3.58;1.80;;;;;;;6.88;100.00;94591.97;5067928;28;20528;-66
2021/10/16 05:45:40;;;;;;;3.55;2.10;;;;;;;7.03;100.00;94607.94;5079038;28;20058;-66
2021/10/16 05:48:07;;;;;;;5.03;3.42;;;;;;;7.07;100.00;94609.09;5076513;28;20108;-65
2021/10/16 05:50:34;;;;;;;10.88;5.05;;;;;;;7.08;100.00;94615.09;5087618;28;20048;-65
2021/10/16 05:53:04;;;;;;;12.93;6.10;;;;;;;7.17;100.00;94618.19;5066777;28;20135;-65
2021/10/16 05:55:30;;;;;;;24.55;8.93;;;;;;;7.16;100.00;94621.78;5104426;28;20527;-66
2021/10/16 05:57:58;;;;;;;12.10;6.03;;;;;;;7.20;100.00;94618.56;5087248;28;20051;-65
2021/10/16 06:00:25;;;;;;;22.13;6.13;;;;;;;7.15;100.00;94607.22;5086904;28;20486;-65
2021/10/16 06:02:54;;;;;;;17.05;7.90;;;;;;;7.15;100.00;94612.41;5087252;28;20043;-65
2021/10/16 06:05:29;;;;;;;13.95;5.10;;;;;;;7.15;100.00;94615.00;5076962;28;20039;-65
2021/10/16 06:07:58;;;;;;;6.28;2.78;;;;;;;7.20;100.00;94620.34;5086957;28;20130;-66
2021/10/16 06:10:25;;;;;;;22.65;5.18;;;;;;;7.18;100.00;94617.16;5086945;28;20055;-66
2021/10/16 06:12:52;;;;;;;10.75;3.58;;;;;;;7.32;100.00;94633.38;5086859;28;20051;-65
2021/10/16 06:15:19;;;;;;;6.15;2.97;;;;;;;7.27;100.00;94628.84;5078154;28;20074;-66
2021/10/16 06:17:46;;;;;;;4.97;2.38;;;;;;;7.32;100.00;94630.78;5096896;28;20044;-66
2021/10/16 06:20:14;;;;;;;2.72;2.15;;;;;;;7.27;100.00;94634.81;5074297;28;20056;-65
2021/10/16 06:22:40;;;;;;;3.35;2.10;;;;;;;7.28;100.00;94635.59;5105557;28;20039;-66
2021/10/16 06:25:08;;;;;;;5.57;1.70;;;;;;;7.40;100.00;94633.91;5079957;28;20043;-66
2021/10/16 06:27:35;;;;;;;9.68;3.80;;;;;;;7.31;100.00;94619.66;5063888;28;20076;-65
2021/10/16 06:30:04;;;;;;;6.05;1.98;;;;;;;7.38;100.00;94635.91;5076259;28;20063;-65
2021/10/16 06:32:31;;;;;;;12.02;4.00;;;;;;;7.38;100.00;94635.91;5078039;28;20496;-66
2021/10/16 06:35:01;;;;;;;8.35;3.50;;;;;;;7.45;100.00;94641.00;5073473;28;20113;-66
2021/10/16 06:37:28;;;;;;;23.38;5.07;;;;;;;7.49;100.00;94641.38;5071389;28;20055;-65
2021/10/16 06:39:55;;;;;;;8.73;3.22;;;;;;;7.50;100.00;94643.75;5067312;28;20502;-66
2021/10/16 06:42:24;;;;;;;12.50;4.15;;;;;;;7.52;100.00;94651.31;5069569;28;20486;-65
2021/10/16 06:45:14;;;;;;;8.93;3.13;;;;;;;7.46;100.00;94652.97;5076947;28;20409;-65
2021/10/16 06:47:51;;;;;;;24.63;6.25;;;;;;;7.46;100.00;94664.13;5073056;28;20051;-66
2021/10/16 06:50:44;;;;;;;11.10;4.13;;;;;;;7.59;100.00;94657.22;5055694;28;20044;-66
2021/10/16 06:53:11;;;;;;;8.27;3.60;;;;;;;7.65;100.00;94661.53;5090334;28;20032;-65
2021/10/16 06:55:40;;;;;;;10.32;3.88;;;;;;;7.72;100.00;94666.66;5072361;28;20048;-66
2021/10/16 06:58:07;;;;;;;10.20;3.05;;;;;;;7.72;100.00;94677.78;5088105;28;20527;-65
2021/10/16 07:00:34;;;;;;;8.75;3.55;;;;;;;7.72;100.00;94677.78;5070600;28;20109;-65
2021/10/16 07:03:14;;;;;;;10.65;3.30;;;;;;;7.75;100.00;94681.78;5072441;28;20060;-66
2021/10/16 07:05:43;;;;;;;23.20;5.85;;;;;;;7.68;100.00;94676.66;5071118;28;20068;-65
2021/10/16 07:08:10;;;;;;;23.70;5.80;;;;;;;7.71;100.00;94673.63;5072454;28;20416;-66
2021/10/16 07:10:41;;;;;;;12.27;5.35;;;;;;;7.80;100.00;94684.50;5093302;28;20466;-66
2021/10/16 07:13:09;;;;;;;11.77;4.47;;;;;;;7.84;100.00;94702.00;5093499;28;20819;-66
2021/10/16 07:15:35;;;;;;;18.83;5.82;;;;;;;7.92;100.00;94697.53;5093715;28;20043;-66
2021/10/16 07:18:03;;;;;;;15.65;6.30;;;;;;;7.92;100.00;94697.53;5070280;28;20060;-66
2021/10/16 07:20:30;;;;;;;9.80;4.88;;;;;;;7.99;100.00;94700.84;5065046;28;20093;-65
2021/10/16 07:22:56;;;;;;;13.35;5.13;;;;;;;8.03;100.00;94704.56;5087006;28;20052;-65
2021/10/16 07:25:23;;;;;;;6.90;4.20;;;;;;;7.97;100.00;94705.47;5086154;28;20507;-65
2021/10/16 07:27:54;;;;;;;15.52;7.60;;;;;;;8.08;100.00;94715.09;5088945;28;20051;-65
2021/10/16 07:30:21;;;;;;;13.35;6.20;;;;;;;8.14;100.00;94716.84;5088138;28;20177;-67
2021/10/16 07:32:48;;;;;;;9.27;5.80;;;;;;;8.15;100.00;94708.03;5074665;28;20044;-66
2021/10/16 07:35:15;;;;;;;6.90;4.20;;;;;;;8.16;100.00;94717.41;5096577;28;20044;-66
2021/10/16 07:37:42;;;;;;;9.65;6.22;;;;;;;8.16;100.00;94714.81;5086949;28;20051;-65
2021/10/16 07:40:10;;;;;;;9.60;5.07;;;;;;;8.20;100.00;94721.13;5086599;28;20056;-66
2021/10/16 07:42:37;;;;;;;6.15;3.70;;;;;;;8.27;100.00;94720.28;5072252;28;20075;-65
2021/10/16 07:45:04;;;;;;;9.23;4.80;;;;;;;8.33;100.00;94719.41;5095312;28;20048;-65
2021/10/16 07:47:30;;;;;;;12.55;6.25;;;;;;;8.49;100.00;94721.41;5088969;28;20059;-66
2021/10/16 07:49:57;;;;;;;9.38;4.90;;;;;;;8.53;100.00;94719.94;5075956;28;20577;-66
2021/10/16 07:52:24;;;;;;;4.85;3.30;;;;;;;8.51;100.00;94732.34;5089515;28;20054;-65
2021/10/16 07:54:51;;;;;;;5.63;3.42;;;;;;;8.54;100.00;94711.16;5091048;28;20058;-64
2021/10/16 07:57:17;;;;;;;10.55;5.70;;;;;;;8.58;100.00;94712.28;5087126;28;20040;-64
2021/10/16 07:59:44;;;;;;;7.85;5.03;;;;;;;8.64;100.00;94715.03;5092706;28;20047;-65
2021/10/16 08:02:11;;;;;;;7.70;4.60;;;;;;;8.71;100.00;94731.31;5097855;28;20040;-64
2021/10/16 08:04:38;;;;;;;9.45;4.80;;;;;;;8.72;100.00;94720.69;5092099;28;20067;-65
2021/10/16 08:07:08;;;;;;;5.97;3.35;;;;;;;8.71;100.00;94715.72;5091582;28;20540;-64
2021/10/16 08:09:35;;;;;;;4.72;3.00;;;;;;;8.71;100.00;94726.09;5075496;28;20047;-64
2021/10/16 08:12:02;;;;;;;7.07;4.18;;;;;;;8.68;100.00;94729.13;5091042;28;20051;-64
2021/10/16 08:14:29;;;;;;;5.63;3.53;;;;;;;8.73;100.00;94729.28;5088152;28;20047;-64
2021/10/16 08:16:56;;;;;;;4.88;3.17;;;;;;;8.81;100.00;94726.38;5087272;28;20040;-64
2021/10/16 08:19:23;;;;;;;7.13;3.58;;;;;;;8.91;100.00;94736.22;5086982;28;20047;-64
2021/10/16 08:21:49;;;;;;;7.28;3.97;;;;;;;9.03;100.00;94738.84;5088105;28;20036;-65
2021/10/16 08:24:17;;;;;;;5.68;2.92;;;;;;;8.93;100.00;94729.81;5068553;28;20044;-64
2021/10/16 08:26:43;;;;;;;5.07;2.65;;;;;;;8.90;100.00;94740.63;5092496;28;20050;-64
2021/10/16 08:29:10;;;;;;;6.13;2.85;;;;;;;8.90;100.00;94725.03;5093687;28;20039;-64
2021/10/16 08:31:37;;;;;;;4.53;3.13;;;;;;;8.95;100.00;94739.97;5087466;28;20040;-64
2021/10/16 08:34:04;;;;;;;3.80;2.65;;;;;;;8.89;100.00;94739.03;5087373;28;20098;-64
2021/10/16 08:36:31;;;;;;;4.45;2.40;;;;;;;9.06;100.00;94738.41;5092232;28;21613;-64
2021/10/16 08:38:58;;;;;;;2.22;1.50;;;;;;;9.04;100.00;94740.41;5091951;28;20044;-64
2021/10/16 08:41:24;;;;;;;2.65;1.90;;;;;;;8.94;100.00;94741.75;5089047;28;20056;-64
2021/10/16 08:43:51;;;;;;;5.25;2.67;;;;;;;9.13;100.00;94739.09;5074647;28;20051;-64
2021/10/16 08:46:19;;;;;;;4.82;2.88;;;;;;;9.28;100.00;94752.44;5090528;28;20048;-63
2021/10/16 08:48:46;;;;;;;3.05;1.98;;;;;;;9.44;100.00;94745.00;5089406;28;20036;-63
2021/10/16 08:51:13;;;;;;;3.03;2.17;;;;;;;9.49;100.00;94742.50;5095320;28;20047;-63
2021/10/16 08:53:40;;;;;;;6.82;3.70;;;;;;;9.61;100.00;94743.28;5092817;28;20097;-64
2021/10/16 08:56:07;;;;;;;8.52;3.88;;;;;;;9.80;100.00;94743.19;5091256;28;20045;-63
2021/10/16 08:58:34;;;;;;;2.08;1.38;;;;;;;9.81;100.00;94744.75;5087964;28;20510;-64
2021/10/16 09:01:03;;;;;;;4.40;2.67;;;;;;;9.85;100.00;94745.88;5086819;28;20044;-64
2021/10/16 09:03:47;;;;;;;3.85;2.30;;;;;;;10.03;100.00;94758.78;5088641;28;20067;-64
2021/10/16 09:06:25;;;;;;;2.40;1.50;;;;;;;10.03;100.00;94758.78;5071630;28;20066;-64
2021/10/16 09:09:09;;;;;;;2.70;1.30;;;;;;;10.16;100.00;94757.72;5087821;28;20040;-65
2021/10/16 09:11:40;;;;;;;1.97;1.10;;;;;;;10.31;100.00;94759.88;5086017;28;20047;-65
2021/10/16 09:14:18;;;;;;;2.17;1.55;;;;;;;10.39;100.00;94756.91;5086121;28;20048;-64
2021/10/16 09:16:50;;;;;;;2.08;1.33;;;;;;;10.46;100.00;94761.97;5086817;28;20036;-65
2021/10/16 09:19:23;;;;;;;3.72;1.17;;;;;;;10.65;100.00;94762.59;5069740;28;20040;-64
2021/10/16 09:21:54;;;;;;;2.75;1.20;;;;;;;10.95;100.00;94764.16;5083844;28;20382;-64
2021/10/16 09:24:38;;;;;;;0.88;0.50;;;;;;;11.19;100.00;94764.84;5088012;28;20040;-65
2021/10/16 09:27:08;;;;;;;1.30;0.90;;;;;;;11.19;100.00;94764.84;5083424;28;20048;-64
2021/10/16 09:29:37;;;;;;;0.60;0.50;;;;;;;11.15;100.00;94769.72;5087637;28;20040;-65
2021/10/16 09:32:12;;;;;;;1.70;0.90;;;;;;;11.12;100.00;94764.97;5085668;28;20151;-64
2021/10/16 09:34:42;;;;;;;2.10;1.60;;;;;;;11.21;100.00;94768.78;5086392;28;20036;-64
2021/10/16 09:37:16;;;;;;;1.70;0.65;;;;;;;11.24;100.00;94773.53;5089949;28;20051;-64
2021/10/16 09:39:49;;;;;;;2.70;1.60;;;;;;;11.36;100.00;94775.25;5084205;28;20036;-65
2021/10/16 09:42:30;;;;;;;2.03;0.98;;;;;;;11.36;100.00;94770.03;5090115;28;20164;-64
2021/10/16 09:44:58;;;;;;;2.15;1.15;;;;;;;11.60;100.00;94775.91;5084233;28;20421;-64
2021/10/16 09:47:25;;;;;;;3.95;1.90;;;;;;;11.73;100.00;94780.00;5082658;28;20052;-64
2021/10/16 09:49:59;;;;;;;2.17;1.23;;;;;;;11.73;100.00;94774.78;5086193;28;20173;-64
2021/10/16 09:52:38;;;;;;;2.75;1.50;;;;;;;11.73;98.38;94774.78;5079844;28;20476;-65
2021/10/16 09:55:06;;;;;;;1.33;0.70;;;;;;;11.70;96.78;94764.81;5082857;28;20058;-64
2021/10/16 09:57:34;;;;;;;1.20;0.60;;;;;;;11.80;97.51;94765.75;5084574;28;20040;-64
2021/10/16 10:00:03;;;;;;;0.95;0.65;;;;;;;11.73;95.76;94774.78;5080901;28;20056;-64
2021/10/16 10:02:37;;;;;;;1.23;0.80;;;;;;;11.51;96.55;94772.91;5086475;28;20079;-64
2021/10/16 10:05:07;;;;;;;1.48;1.13;;;;;;;11.47;96.86;94798.66;5086613;28;20291;-64
2021/10/16 10:07:35;;;;;;;1.40;0.90;;;;;;;11.40;97.21;94781.59;5085974;28;20042;-64
2021/10/16 10:10:05;;;;;;;1.08;0.73;;;;;;;11.54;97.06;94782.88;5084042;28;20101;-64
2021/10/16 10:12:33;;;;;;;1.40;0.90;;;;;;;11.82;96.93;94789.00;5082673;28;20058;-63
2021/10/16 10:15:00;;;;;;;1.52;0.82;;;;;;;11.61;95.79;94788.72;5082798;28;20494;-64
2021/10/16 10:17:35;;;;;;;1.60;0.80;;;;;;;11.60;96.85;94786.34;5089705;28;20101;-64
2021/10/16 10:20:05;;;;;;;55.40;48.40;;;;;;;11.69;97.98;94791.97;5085915;28;20048;-64
2021/10/16 10:22:34;;;;;;;0.30;0.25;;;;;;;11.77;96.58;94801.97;5091680;28;20124;-64
2021/10/16 10:25:02;;;;;;;0.80;0.30;;;;;;;11.86;95.96;94795.31;5084956;28;20044;-64
2021/10/16 10:27:42;;;;;;;3.03;1.20;;;;;;;12.02;97.02;94778.88;5092154;28;20031;-65
2021/10/16 10:30:49;;;;;;;2.05;0.32;;;;;;;12.24;95.01;94794.59;5084375;28;20060;-65
2021/10/16 10:33:20;;;;;;;1.75;1.45;;;;;;;12.25;93.63;94795.38;5068758;28;20047;-65
2021/10/16 10:36:03;;;;;;;1.30;0.68;;;;;;;12.40;92.78;94798.16;5092571;28;20476;-66
2021/10/16 10:38:39;;;;;;;0.75;0.40;;;;;;;12.34;91.76;94801.75;5084607;28;20040;-65
2021/10/16 10:41:21;;;;;;;1.02;0.60;;;;;;;12.29;91.91;94806.91;5084830;28;20059;-65
2021/10/16 10:43:49;;;;;;;2.10;0.70;;;;;;;12.13;91.23;94805.91;5092168;28;20058;-72
2021/10/16 10:46:26;;;;;;;1.50;0.70;;;;;;;12.17;91.78;94795.78;5076330;28;20445;-70
2021/10/16 10:49:07;;;;;;;0.82;0.65;;;;;;;12.23;91.93;94800.03;5061907;28;20043;-72
2021/10/16 10:51:37;;;;;;;2.22;1.08;;;;;;;12.24;93.14;94804.22;5076270;28;20508;-69
2021/10/16 10:54:13;;;;;;;1.42;1.00;;;;;;;12.20;92.48;94803.13;5093019;28;20093;-70
2021/10/16 10:56:42;;;;;;;2.55;1.52;;;;;;;12.14;92.18;94796.28;5095561;28;20493;-71
2021/10/16 10:59:11;;;;;;;17.45;9.80;;;;;;;12.21;93.05;94802.88;5089901;28;20048;-70
2021/10/16 11:01:49;;;;;;;3.42;1.75;;;;;;;12.03;90.83;94805.78;5088099;28;20044;-71
2021/10/16 11:04:50;;;;;;;7.15;2.88;;;;;;;12.08;92.96;94807.66;5088680;28;20105;-71
2021/10/16 11:07:46;;;;;;;2.65;1.83;;;;;;;11.95;94.19;94811.41;5090709;28;20051;-72
2021/10/16 11:10:13;;;;;;;3.72;2.03;;;;;;;11.92;94.68;94804.84;5088920;28;20052;-73
2021/10/16 11:12:43;;;;;;;2.60;1.48;;;;;;;11.99;93.90;94810.69;5091819;28;20054;-73
2021/10/16 11:15:12;;;;;;;3.35;2.28;;;;;;;12.01;95.30;94813.84;5094616;28;20081;-73
2021/10/16 11:17:46;;;;;;;3.53;1.67;;;;;;;12.09;95.88;94815.25;5093438;28;20036;-72
2021/10/16 11:20:16;;;;;;;5.13;2.22;;;;;;;11.98;95.96;94808.31;5093667;28;20036;-73
2021/10/16 11:22:50;;;;;;;13.60;6.43;;;;;;;12.02;95.65;94818.03;5095128;28;20050;-71
2021/10/16 11:25:23;;;;;;;6.72;3.30;;;;;;;12.03;96.28;94817.00;5096347;28;20039;-71
2021/10/16 11:28:09;;;;;;;4.93;2.97;;;;;;;11.99;97.02;94815.91;5071608;28;20043;-72
2021/10/16 11:30:47;;;;;;;4.68;2.67;;;;;;;12.03;97.24;94811.78;5077489;28;20039;-71
2021/10/16 11:33:17;;;;;;;5.63;3.03;;;;;;;12.05;97.46;94820.16;5092141;28;20043;-71
2021/10/16 11:35:47;;;;;;;7.72;4.38;;;;;;;12.05;97.19;94814.94;5095881;28;20036;-71
2021/10/16 11:38:20;;;;;;;6.53;3.20;;;;;;;12.01;96.14;94819.06;5094742;28;20428;-72
2021/10/16 11:40:47;;;;;;;4.38;3.08;;;;;;;11.96;95.30;94816.38;5095179;28;20051;-71
2021/10/16 11:43:20;;;;;;;3.15;1.83;;;;;;;11.94;95.20;94818.44;5095148;28;20044;-71
2021/10/16 11:45:50;;;;;;;8.85;3.70;;;;;;;11.92;95.28;94819.69;5091509;28;20040;-70